createdAt,value
2018-12-25T00:02:19.505Z,98642.95
2018-12-25T00:05:03.428Z,98646.95
2018-12-25T00:07:35.015Z,98639.52
2018-12-25T00:10:08.900Z,98642.50
2018-12-25T00:12:41.917Z,98635.65
2018-12-25T00:15:19.293Z,98637.03
2018-12-25T00:18:00.312Z,98642.80
2018-12-25T00:20:46.651Z,98648.35
2018-12-25T00:23:26.998Z,98648.50
2018-12-25T00:25:58.578Z,98644.15
2018-12-25T00:28:30.939Z,98640.55
2018-12-25T00:31:05.541Z,98637.37
2018-12-25T00:33:37.423Z,98636.05
2018-12-25T00:36:09.499Z,98633.80
2018-12-25T00:38:42.045Z,98635.77
2018-12-25T00:41:14.373Z,98637.88
2018-12-25T00:43:47.583Z,98633.69
2018-12-25T00:46:20.666Z,98637.73
2018-12-25T00:48:54.615Z,98642.40
2018-12-25T00:51:28.846Z,98644.94
2018-12-25T00:54:06.156Z,98651.73
2018-12-25T00:56:37.998Z,98642.02
2018-12-25T00:59:24.414Z,98644.20
2018-12-25T01:01:59.493Z,98642.72
2018-12-25T01:04:32.935Z,98649.66
2018-12-25T01:07:10.881Z,98662.02
2018-12-25T01:09:51.118Z,98663.53
2018-12-25T01:12:24.724Z,98665.83
2018-12-25T01:14:55.868Z,98665.88
2018-12-25T01:17:29.203Z,98666.92
2018-12-25T01:20:00.819Z,98665.44
2018-12-25T01:22:32.548Z,98671.38
2018-12-25T01:25:05.726Z,98675.08
2018-12-25T01:27:39.905Z,98672.88
2018-12-25T01:30:12.166Z,98685.75
2018-12-25T01:32:44.867Z,98691.45
2018-12-25T01:35:16.794Z,98689.48
2018-12-25T01:37:59.630Z,98694.78
2018-12-25T01:40:31.428Z,98693.98
2018-12-25T01:43:04.220Z,98695.03
2018-12-25T01:45:38.514Z,98693.03
2018-12-25T01:48:12.469Z,98694.84
2018-12-25T01:50:47.075Z,98692.38
2018-12-25T01:53:30.907Z,98693.15
2018-12-25T01:56:05.663Z,98698.02
2018-12-25T01:58:41.133Z,98705.72
2018-12-25T02:01:17.458Z,98704.64
2018-12-25T02:03:52.120Z,98706.92
2018-12-25T02:06:24.965Z,98711.42
2018-12-25T02:09:06.159Z,98712.70
2018-12-25T02:11:37.798Z,98720.86
2018-12-25T02:14:09.584Z,98709.88
2018-12-25T02:16:41.343Z,98709.74
2018-12-25T02:19:13.128Z,98709.92
2018-12-25T02:21:44.953Z,98709.61
2018-12-25T02:24:17.060Z,98705.02
2018-12-25T02:26:48.443Z,98698.61
2018-12-25T02:29:20.126Z,98692.14
2018-12-25T02:31:51.727Z,98686.80
2018-12-25T02:34:23.172Z,98679.90
2018-12-25T02:36:55.014Z,98677.83
2018-12-25T02:39:26.389Z,98678.20
2018-12-25T02:41:57.352Z,98671.39
2018-12-25T02:44:29.001Z,98672.09
2018-12-25T02:47:00.785Z,98666.30
2018-12-25T02:49:32.086Z,98672.05
2018-12-25T02:52:03.608Z,98675.33
2018-12-25T02:54:35.015Z,98671.32
2018-12-25T02:57:06.813Z,98663.23
2018-12-25T03:00:34.033Z,98650.63
2018-12-25T03:03:05.567Z,98651.06
2018-12-25T03:05:36.927Z,98642.52
2018-12-25T03:08:08.864Z,98642.23
2018-12-25T03:10:40.668Z,98642.33
2018-12-25T03:13:12.138Z,98638.65
2018-12-25T03:15:43.814Z,98636.89
2018-12-25T03:18:15.638Z,98626.73
2018-12-25T03:20:47.419Z,98634.09
2018-12-25T03:23:18.664Z,98637.70
2018-12-25T03:25:49.954Z,98641.39
2018-12-25T03:28:27.928Z,98645.81
2018-12-25T03:30:59.713Z,98641.56
2018-12-25T03:33:31.295Z,98653.92
2018-12-25T03:36:03.076Z,98660.39
2018-12-25T03:38:34.554Z,98667.66
2018-12-25T03:41:05.534Z,98670.14
2018-12-25T03:43:36.776Z,98655.33
2018-12-25T03:46:08.021Z,98654.20
2018-12-25T03:48:39.567Z,98660.02
2018-12-25T03:51:23.420Z,98657.53
2018-12-25T03:53:55.179Z,98655.28
2018-12-25T03:56:26.858Z,98652.67
2018-12-25T03:58:58.045Z,98645.81
2018-12-25T04:01:29.972Z,98652.19
2018-12-25T04:04:01.808Z,98667.59
2018-12-25T04:06:32.844Z,98666.38
2018-12-25T04:09:04.622Z,98667.06
2018-12-25T04:11:36.105Z,98669.34
2018-12-25T04:14:08.006Z,98669.95
2018-12-25T04:16:39.528Z,98659.21
2018-12-25T04:19:10.919Z,98650.47
2018-12-25T04:21:42.485Z,98658.05
2018-12-25T04:24:14.364Z,98662.03
2018-12-25T04:26:45.498Z,98663.73
2018-12-25T04:29:17.337Z,98662.84
2018-12-25T04:31:49.123Z,98669.09
2018-12-25T04:34:20.952Z,98670.88
2018-12-25T04:36:52.265Z,98668.33
2018-12-25T04:39:23.797Z,98662.66
2018-12-25T04:41:55.224Z,98665.03
2018-12-25T04:44:26.547Z,98662.03
2018-12-25T04:46:57.826Z,98665.47
2018-12-25T04:49:29.878Z,98660.41
2018-12-25T04:52:01.626Z,98664.70
2018-12-25T04:54:32.854Z,98670.05
2018-12-25T04:57:04.097Z,98670.86
2018-12-25T04:59:35.720Z,98675.43
2018-12-25T05:02:07.246Z,98682.69
2018-12-25T05:04:39.074Z,98684.65
2018-12-25T05:07:10.925Z,98684.82
2018-12-25T05:09:42.684Z,98689.45
2018-12-25T05:12:14.029Z,98695.67
2018-12-25T05:14:45.699Z,98693.17
2018-12-25T05:17:16.759Z,98691.13
2018-12-25T05:19:48.604Z,98695.42
2018-12-25T05:22:20.243Z,98697.02
2018-12-25T05:24:52.107Z,98699.47
2018-12-25T05:27:24.067Z,98700.97
2018-12-25T05:29:55.587Z,98693.38
2018-12-25T05:32:27.072Z,98699.81
2018-12-25T05:34:58.972Z,98698.57
2018-12-25T05:37:30.819Z,98698.03
2018-12-25T05:40:02.968Z,98705.45
2018-12-25T05:42:34.479Z,98704.59
2018-12-25T05:45:05.128Z,98706.63
2018-12-25T05:47:37.113Z,98714.76
2018-12-25T05:50:09.595Z,98708.62
2018-12-25T05:52:41.247Z,98709.69
2018-12-25T05:55:12.756Z,98714.38
2018-12-25T05:57:44.449Z,98720.48
2018-12-25T06:00:16.101Z,98718.83
2018-12-25T06:02:47.884Z,98718.66
2018-12-25T06:05:19.736Z,98715.46
2018-12-25T06:07:51.090Z,98719.27
2018-12-25T06:10:22.961Z,98723.33
2018-12-25T06:12:54.849Z,98724.02
2018-12-25T06:15:26.675Z,98727.53
2018-12-25T06:17:58.518Z,98730.47
2018-12-25T06:20:29.544Z,98717.14
2018-12-25T06:23:00.889Z,98715.00
2018-12-25T06:25:32.670Z,98711.05
2018-12-25T06:28:03.945Z,98713.67
2018-12-25T06:30:35.664Z,98714.25
2018-12-25T06:33:07.164Z,98709.84
2018-12-25T06:35:38.528Z,98714.50
2018-12-25T06:38:10.391Z,98711.00
2018-12-25T06:40:41.647Z,98711.82
2018-12-25T06:43:13.359Z,98721.17
2018-12-25T06:45:45.283Z,98714.39
2018-12-25T06:48:18.063Z,98714.19
2018-12-25T06:50:49.571Z,98709.17
2018-12-25T06:53:21.276Z,98713.79
2018-12-25T06:55:52.869Z,98719.17
2018-12-25T06:58:24.724Z,98729.61
2018-12-25T07:00:55.701Z,98726.36
2018-12-25T07:03:27.499Z,98730.63
2018-12-25T07:05:59.003Z,98724.47
2018-12-25T07:08:30.808Z,98721.48
2018-12-25T07:11:02.609Z,98720.56
2018-12-25T07:13:33.883Z,98721.23
2018-12-25T07:16:05.774Z,98717.38
2018-12-25T07:18:38.004Z,98719.67
2018-12-25T07:21:12.288Z,98710.25
2018-12-25T07:23:47.783Z,98709.84
2018-12-25T07:26:19.257Z,98716.33
2018-12-25T07:28:50.797Z,98721.06
2018-12-25T07:31:22.357Z,98720.64
2018-12-25T07:33:54.299Z,98722.93
2018-12-25T07:36:25.938Z,98720.21
2018-12-25T07:38:57.696Z,98720.46
2018-12-25T07:41:28.909Z,98722.16
2018-12-25T07:44:01.610Z,98719.92
2018-12-25T07:46:33.128Z,98708.72
2018-12-25T07:49:04.707Z,98713.41
2018-12-25T07:51:35.886Z,98706.67
2018-12-25T07:54:07.496Z,98710.10
2018-12-25T07:56:39.452Z,98714.33
2018-12-25T07:59:11.075Z,98716.10
2018-12-25T08:01:42.913Z,98708.26
2018-12-25T08:04:14.800Z,98702.83
2018-12-25T08:06:46.448Z,98705.47
2018-12-25T08:09:17.928Z,98699.55
2018-12-25T08:11:49.803Z,98708.06
2018-12-25T08:14:21.505Z,98707.63
2018-12-25T08:16:53.407Z,98716.50
2018-12-25T08:19:24.595Z,98710.48
2018-12-25T08:21:55.642Z,98707.84
2018-12-25T08:24:27.396Z,98708.72
2018-12-25T08:26:59.034Z,98710.16
2018-12-25T08:29:30.748Z,98710.12
2018-12-25T08:32:02.272Z,98705.30
2018-12-25T08:34:33.701Z,98706.30
2018-12-25T08:37:05.666Z,98708.36
2018-12-25T08:39:37.233Z,98712.11
2018-12-25T08:42:09.125Z,98713.31
2018-12-25T08:44:40.687Z,98722.49
2018-12-25T08:47:12.994Z,98719.17
2018-12-25T08:49:44.361Z,98722.13
2018-12-25T08:52:15.754Z,98713.03
2018-12-25T08:54:47.417Z,98716.00
2018-12-25T08:57:18.954Z,98712.85
2018-12-25T08:59:50.022Z,98712.70
2018-12-25T09:02:21.805Z,98713.41
2018-12-25T09:04:53.369Z,98719.72
2018-12-25T09:07:25.234Z,98722.02
2018-12-25T09:09:57.125Z,98726.30
2018-12-25T09:12:28.642Z,98733.68
2018-12-25T09:15:00.504Z,98733.01
2018-12-25T09:17:32.151Z,98741.56
2018-12-25T09:20:03.679Z,98743.97
2018-12-25T09:22:35.643Z,98744.65
2018-12-25T09:25:13.938Z,98751.05
2018-12-25T09:27:45.836Z,98748.02
2018-12-25T09:30:17.216Z,98746.74
2018-12-25T09:32:49.188Z,98752.45
2018-12-25T09:35:20.440Z,98741.02
2018-12-25T09:37:51.353Z,98739.25
2018-12-25T09:40:22.886Z,98741.50
2018-12-25T09:42:54.730Z,98742.63
2018-12-25T09:45:26.139Z,98745.40
2018-12-25T09:47:58.114Z,98741.81
2018-12-25T09:50:29.495Z,98748.98
2018-12-25T09:53:04.739Z,98744.95
2018-12-25T09:55:36.644Z,98745.77
2018-12-25T09:58:08.101Z,98741.38
2018-12-25T10:00:39.114Z,98742.05
2018-12-25T10:03:10.716Z,98746.88
2018-12-25T10:05:42.118Z,98738.48
2018-12-25T10:08:13.887Z,98746.41
2018-12-25T10:10:45.216Z,98747.22
2018-12-25T10:13:17.121Z,98748.00
2018-12-25T10:15:48.457Z,98739.93
2018-12-25T10:18:20.357Z,98733.13
2018-12-25T10:20:53.345Z,98740.10
2018-12-25T10:23:25.240Z,98727.19
2018-12-25T10:25:56.538Z,98729.11
2018-12-25T10:28:28.089Z,98731.86
2018-12-25T10:31:00.277Z,98732.14
2018-12-25T10:33:32.562Z,98731.32
2018-12-25T10:36:04.327Z,98726.09
2018-12-25T10:38:36.005Z,98716.75
2018-12-25T10:41:07.576Z,98718.94
2018-12-25T10:43:38.844Z,98706.89
2018-12-25T10:46:10.532Z,98710.77
2018-12-25T10:48:48.643Z,98705.91
2018-12-25T10:51:20.273Z,98711.25
2018-12-25T10:53:51.811Z,98709.84
2018-12-25T10:56:24.252Z,98708.69
2018-12-25T10:58:56.208Z,98705.63
2018-12-25T11:01:31.160Z,98711.46
2018-12-25T11:04:02.768Z,98709.16
2018-12-25T11:06:34.588Z,98714.91
2018-12-25T11:09:05.875Z,98723.01
2018-12-25T11:11:37.437Z,98726.95
2018-12-25T11:14:11.070Z,98721.83
2018-12-25T11:16:42.379Z,98714.55
2018-12-25T11:19:13.733Z,98704.86
2018-12-25T11:21:45.380Z,98696.97
2018-12-25T11:24:16.965Z,98695.49
2018-12-25T11:26:48.721Z,98695.98
2018-12-25T11:29:20.795Z,98696.48
2018-12-25T11:31:52.812Z,98698.46
2018-12-25T11:34:24.104Z,98694.44
2018-12-25T11:36:56.018Z,98697.86
2018-12-25T11:39:27.423Z,98694.63
2018-12-25T11:41:59.261Z,98691.06
2018-12-25T11:44:31.112Z,98689.55
2018-12-25T11:47:02.343Z,98690.95
2018-12-25T11:49:33.278Z,98691.76
2018-12-25T11:52:06.290Z,98695.16
2018-12-25T11:54:38.232Z,98696.79
2018-12-25T11:57:10.083Z,98696.53
2018-12-25T11:59:41.880Z,98697.11
2018-12-25T12:02:17.178Z,98698.66
2018-12-25T12:04:53.600Z,98693.91
2018-12-25T12:07:25.214Z,98697.68
2018-12-25T12:10:09.792Z,98698.48
2018-12-25T12:12:41.380Z,98687.12
2018-12-25T12:15:12.414Z,98682.14
2018-12-25T12:17:43.710Z,98688.98
2018-12-25T12:20:18.635Z,98690.65
2018-12-25T12:22:50.042Z,98700.25
2018-12-25T12:25:21.890Z,98698.66
2018-12-25T12:27:53.937Z,98695.25
2018-12-25T12:30:25.076Z,98690.44
2018-12-25T12:32:56.851Z,98683.95
2018-12-25T12:35:28.097Z,98678.86
2018-12-25T12:38:00.247Z,98692.09
2018-12-25T12:40:31.898Z,98680.94
2018-12-25T12:43:03.516Z,98679.62
2018-12-25T12:45:35.232Z,98675.06
2018-12-25T12:48:06.234Z,98668.44
2018-12-25T12:50:44.584Z,98670.48
2018-12-25T12:53:15.817Z,98669.69
2018-12-25T12:55:47.955Z,98672.33
2018-12-25T12:58:19.711Z,98670.56
2018-12-25T13:00:53.323Z,98676.09
2018-12-25T13:03:24.552Z,98671.45
2018-12-25T13:05:55.772Z,98676.57
2018-12-25T13:08:29.424Z,98668.62
2018-12-25T13:11:01.283Z,98666.81
2018-12-25T13:13:33.999Z,98673.64
2018-12-25T13:16:14.371Z,98677.67
2018-12-25T13:18:45.754Z,98681.75
2018-12-25T13:21:17.653Z,98679.04
2018-12-25T13:23:50.387Z,98691.71
2018-12-25T13:26:22.310Z,98687.27
2018-12-25T13:28:55.111Z,98690.27
2018-12-25T13:31:27.185Z,98687.36
2018-12-25T13:33:58.684Z,98697.92
2018-12-25T13:36:30.482Z,98693.02
2018-12-25T13:39:02.272Z,98692.14
2018-12-25T13:41:33.417Z,98697.04
2018-12-25T13:44:04.354Z,98700.45
2018-12-25T13:46:36.130Z,98706.94
2018-12-25T13:49:08.033Z,98710.04
2018-12-25T13:51:41.430Z,98711.98
2018-12-25T13:54:13.577Z,98716.66
2018-12-25T13:56:45.320Z,98720.02
2018-12-25T13:59:16.871Z,98719.89
2018-12-25T14:01:48.065Z,98713.88
2018-12-25T14:04:19.730Z,98717.97
2018-12-25T14:06:51.203Z,98719.91
2018-12-25T14:09:22.544Z,98714.42
2018-12-25T14:11:53.841Z,98717.81
2018-12-25T14:14:25.476Z,98727.66
2018-12-25T14:16:57.039Z,98729.44
2018-12-25T14:19:28.210Z,98736.20
2018-12-25T14:21:59.721Z,98741.54
2018-12-25T14:24:31.556Z,98748.16
2018-12-25T14:27:02.293Z,98746.88
2018-12-25T14:29:33.442Z,98741.52
2018-12-25T14:32:05.481Z,98740.42
2018-12-25T14:34:37.377Z,98739.15
2018-12-25T14:37:08.866Z,98741.22
2018-12-25T14:39:40.162Z,98736.22
2018-12-25T14:42:11.572Z,98735.59
2018-12-25T14:44:48.184Z,98737.02
2018-12-25T14:47:19.987Z,98731.86
2018-12-25T14:49:51.529Z,98732.03
2018-12-25T14:52:23.166Z,98729.27
2018-12-25T14:54:54.907Z,98732.01
2018-12-25T14:57:26.043Z,98730.25
2018-12-25T14:59:57.544Z,98741.56
2018-12-25T15:02:29.561Z,98743.80
2018-12-25T15:05:00.703Z,98738.45
2018-12-25T15:07:31.954Z,98741.69
2018-12-25T15:10:03.653Z,98752.20
2018-12-25T15:12:34.800Z,98753.17
2018-12-25T15:15:05.733Z,98746.38
2018-12-25T15:17:37.417Z,98739.12
2018-12-25T15:20:08.589Z,98738.80
2018-12-25T15:22:40.728Z,98738.76
2018-12-25T15:25:12.013Z,98740.69
2018-12-25T15:27:43.820Z,98742.00
2018-12-25T15:30:15.377Z,98744.23
2018-12-25T15:32:47.023Z,98746.01
2018-12-25T15:35:18.858Z,98755.57
2018-12-25T15:37:50.609Z,98756.19
2018-12-25T15:40:22.179Z,98767.95
2018-12-25T15:42:54.060Z,98763.91
2018-12-25T15:45:25.979Z,98770.67
2018-12-25T15:47:57.256Z,98767.25
2018-12-25T15:50:28.545Z,98776.14
2018-12-25T15:52:59.979Z,98777.44
2018-12-25T15:55:31.486Z,98772.25
2018-12-25T15:58:02.798Z,98776.59
2018-12-25T16:00:34.323Z,98771.61
2018-12-25T16:03:05.744Z,98772.75
2018-12-25T16:05:37.767Z,98770.78
2018-12-25T16:08:09.692Z,98769.52
2018-12-25T16:10:40.977Z,98773.23
2018-12-25T16:13:12.890Z,98783.11
2018-12-25T16:15:43.990Z,98781.81
2018-12-25T16:18:15.885Z,98779.09
2018-12-25T16:20:47.507Z,98781.50
2018-12-25T16:23:18.597Z,98786.17
2018-12-25T16:25:50.299Z,98785.34
2018-12-25T16:28:21.918Z,98778.70
2018-12-25T16:30:53.383Z,98784.22
2018-12-25T16:33:24.850Z,98777.41
2018-12-25T16:35:56.483Z,98770.44
2018-12-25T16:38:31.564Z,98777.72
2018-12-25T16:41:02.958Z,98774.20
2018-12-25T16:43:34.759Z,98778.28
2018-12-25T16:46:05.988Z,98769.70
2018-12-25T16:48:37.548Z,98773.25
2018-12-25T16:51:09.119Z,98771.81
2018-12-25T16:53:41.975Z,98766.28
2018-12-25T16:56:14.018Z,98772.25
2018-12-25T16:58:45.762Z,98771.30
2018-12-25T17:01:17.564Z,98768.73
2018-12-25T17:03:49.520Z,98762.62
2018-12-25T17:06:21.133Z,98754.56
2018-12-25T17:08:52.090Z,98752.65
2018-12-25T17:11:23.374Z,98753.30
2018-12-25T17:13:55.174Z,98758.44
2018-12-25T17:16:26.895Z,98762.30
2018-12-25T17:18:58.717Z,98764.39
2018-12-25T17:21:30.056Z,98766.48
2018-12-25T17:24:02.526Z,98762.59
2018-12-25T17:26:34.119Z,98757.77
2018-12-25T17:29:05.360Z,98759.03
2018-12-25T17:31:36.379Z,98756.80
2018-12-25T17:34:07.755Z,98761.47
2018-12-25T17:36:39.273Z,98757.45
2018-12-25T17:39:10.719Z,98748.70
2018-12-25T17:41:42.612Z,98746.39
2018-12-25T17:44:14.259Z,98747.28
2018-12-25T17:46:46.175Z,98744.59
2018-12-25T17:49:17.673Z,98747.71
2018-12-25T17:51:49.136Z,98744.77
2018-12-25T17:54:20.915Z,98746.81
2018-12-25T17:56:52.726Z,98747.39
2018-12-25T17:59:23.992Z,98748.95
2018-12-25T18:01:55.835Z,98752.22
2018-12-25T18:04:27.106Z,98753.44
2018-12-25T18:06:58.791Z,98751.22
2018-12-25T18:09:30.675Z,98760.45
2018-12-25T18:12:02.189Z,98769.00
2018-12-25T18:14:33.992Z,98768.05
2018-12-25T18:17:05.380Z,98764.17
2018-12-25T18:19:36.784Z,98762.20
2018-12-25T18:22:08.316Z,98763.64
2018-12-25T18:24:40.035Z,98767.99
2018-12-25T18:27:11.813Z,98763.77
2018-12-25T18:29:43.116Z,98761.45
2018-12-25T18:32:14.847Z,98764.75
2018-12-25T18:34:46.764Z,98759.06
2018-12-25T18:37:18.265Z,98756.81
2018-12-25T18:40:02.182Z,98750.91
2018-12-25T18:42:33.935Z,98754.15
2018-12-25T18:45:04.610Z,98750.41
2018-12-25T18:47:36.179Z,98752.25
2018-12-25T18:50:08.918Z,98757.88
2018-12-25T18:52:40.523Z,98761.43
2018-12-25T18:55:12.079Z,98759.81
2018-12-25T18:57:43.774Z,98760.80
2018-12-25T19:00:14.990Z,98766.27
2018-12-25T19:02:46.687Z,98762.12
2018-12-25T19:05:27.646Z,98765.02
2018-12-25T19:07:59.480Z,98767.83
2018-12-25T19:10:32.721Z,98768.66
2018-12-25T19:13:04.545Z,98768.78
2018-12-25T19:15:36.604Z,98765.73
2018-12-25T19:18:11.312Z,98755.61
2018-12-25T19:20:42.816Z,98757.05
2018-12-25T19:23:14.304Z,98754.80
2018-12-25T19:25:46.126Z,98748.29
2018-12-25T19:28:17.679Z,98746.70
2018-12-25T19:30:49.010Z,98744.78
2018-12-25T19:33:20.999Z,98746.23
2018-12-25T19:35:52.725Z,98744.13
2018-12-25T19:38:24.299Z,98742.87
2018-12-25T19:40:56.164Z,98737.06
2018-12-25T19:43:27.998Z,98742.23
2018-12-25T19:46:00.056Z,98735.95
2018-12-25T19:48:31.723Z,98726.27
2018-12-25T19:51:03.403Z,98720.75
2018-12-25T19:53:35.421Z,98716.06
2018-12-25T19:56:07.107Z,98718.16
2018-12-25T19:58:39.296Z,98715.42
2018-12-25T20:01:10.587Z,98715.89
2018-12-25T20:04:02.622Z,98710.74
2018-12-25T20:07:21.382Z,98711.68
2018-12-25T20:10:32.963Z,98717.36
2018-12-25T20:14:22.991Z,98725.06
2018-12-25T20:17:52.687Z,98712.04
2018-12-25T20:21:20.454Z,98711.41
2018-12-25T20:24:36.471Z,98708.31
2018-12-25T20:28:12.835Z,98704.14
2018-12-25T20:31:37.310Z,98698.67
2018-12-25T20:35:08.262Z,98698.50
2018-12-25T20:38:30.088Z,98692.02
2018-12-25T20:42:05.262Z,98688.63
2018-12-25T20:45:43.470Z,98690.87
2018-12-25T20:49:08.044Z,98690.37
2018-12-25T20:52:47.219Z,98679.59
2018-12-25T20:56:44.960Z,98680.55
2018-12-25T21:00:27.247Z,98675.26
2018-12-25T21:04:09.204Z,98672.84
2018-12-25T21:07:30.154Z,98662.67
2018-12-25T21:10:59.060Z,98657.52
2018-12-25T21:14:28.693Z,98652.02
2018-12-25T21:17:57.705Z,98653.96
2018-12-25T21:21:29.052Z,98639.13
2018-12-25T21:24:53.881Z,98642.84
2018-12-25T21:27:34.299Z,98643.00
2018-12-25T21:30:10.541Z,98652.19
2018-12-25T21:32:45.614Z,98650.73
2018-12-25T21:35:27.232Z,98646.06
2018-12-25T21:37:59.468Z,98640.90
2018-12-25T21:40:31.452Z,98634.45
2018-12-25T21:43:03.391Z,98633.50
2018-12-25T21:45:42.613Z,98618.82
2018-12-25T21:48:14.201Z,98616.36
2018-12-25T21:50:46.392Z,98616.52
2018-12-25T21:53:24.566Z,98622.14
2018-12-25T21:55:57.550Z,98618.55
2018-12-25T21:58:29.872Z,98617.40
2018-12-25T22:01:01.535Z,98616.61
2018-12-25T22:03:35.242Z,98609.99
2018-12-25T22:06:06.937Z,98608.56
2018-12-25T22:08:37.669Z,98606.65
2018-12-25T22:11:21.930Z,98602.45
2018-12-25T22:13:53.157Z,98597.93
2018-12-25T22:16:25.531Z,98605.16
2018-12-25T22:18:57.404Z,98605.45
2018-12-25T22:21:29.051Z,98602.05
2018-12-25T22:24:00.016Z,98592.88
2018-12-25T22:26:31.835Z,98596.42
2018-12-25T22:29:04.021Z,98603.05
2018-12-25T22:31:35.882Z,98596.59
2018-12-25T22:34:07.153Z,98595.63
2018-12-25T22:36:38.566Z,98590.47
2018-12-25T22:39:10.502Z,98594.28
2018-12-25T22:41:43.973Z,98586.27
2018-12-25T22:44:21.854Z,98582.19
2018-12-25T22:46:53.588Z,98583.66
2018-12-25T22:49:24.938Z,98593.05
2018-12-25T22:51:57.616Z,98587.55
2018-12-25T22:54:33.059Z,98581.88
2018-12-25T22:57:04.994Z,98580.08
2018-12-25T22:59:40.841Z,98583.01
2018-12-25T23:02:14.493Z,98584.80
2018-12-25T23:04:54.000Z,98586.92
2018-12-25T23:07:27.353Z,98586.09
2018-12-25T23:09:59.980Z,98583.84
2018-12-25T23:12:34.277Z,98589.20
2018-12-25T23:15:08.194Z,98587.67
2018-12-25T23:17:44.254Z,98588.63
2018-12-25T23:20:17.918Z,98591.41
2018-12-25T23:22:56.971Z,98585.57
2018-12-25T23:25:32.950Z,98586.70
2018-12-25T23:28:15.664Z,98591.23
2018-12-25T23:33:41.724Z,98602.19
2018-12-25T23:36:14.342Z,98604.26
2018-12-25T23:38:58.421Z,98598.87
2018-12-25T23:41:32.205Z,98597.57
2018-12-25T23:44:04.746Z,98589.97
2018-12-25T23:46:50.398Z,98590.95
2018-12-25T23:49:25.355Z,98593.22
2018-12-25T23:51:59.569Z,98599.29
2018-12-25T23:54:37.871Z,98598.36
2018-12-25T23:57:16.338Z,98599.00
2018-12-25T23:59:50.708Z,98595.75
